^^
Meteo Knjazevac Station Historical Data
Daily Summary for August 10, 2021 Units:  Both    English   Metric
Daily Weekly Monthly Yearly Custom
  High: Low: Average:
Temperature: 46.4 °F /  8 °C 43.9 °F /  6.6 °C 45.2 °F /  7.3 °C
Dew Point: 45.9 °F /  7.7 °C 43.6 °F /  6.4 °C 44.4 °F /  6.9 °C
Humidity: 99% 93% 97%
Wind Speed: 9mph /  14.5km/h - 5.9mph /  9.5km/h
Wind Gust: 18mph /  29km/h - -
Wind- - South
Pressure: 30.30 in /  1026 hPa 30.21 in /  1022.9 hPa -
Precipitation: 0.29 in /  7.37 mm    
Historical Graphs
 
 
Tabular Data for August 10, 2021
Time Temperature Dew Point Pressure Wind Wind Speed Wind Gust Humidity Rainfall Rate (Hourly) solar Conditions
00:00 46 °F /  7.8 °C 44.1 °F /  6.7 °C 30.28in /  1025.3hPa North 5mph /  8km/h 10mph /  16.1km/h 93% 0.00in /  0mm 0 W/m2
00:10 46 °F /  7.8 °C 44.1 °F /  6.7 °C 30.29in /  1025.6hPa North 5mph /  8km/h 12mph /  19.3km/h 93% 0.00in /  0mm 0 W/m2
00:20 46 °F /  7.8 °C 44.1 °F /  6.7 °C 30.29in /  1025.6hPa North 5mph /  8km/h 12mph /  19.3km/h 93% 0.00in /  0mm 0 W/m2
00:30 46 °F /  7.8 °C 44.1 °F /  6.7 °C 30.29in /  1025.6hPa North 5mph /  8km/h 13mph /  20.9km/h 93% 0.00in /  0mm 0 W/m2
00:40 46 °F /  7.8 °C 44.1 °F /  6.7 °C 30.29in /  1025.6hPa North 5mph /  8km/h 15mph /  24.1km/h 93% 0.00in /  0mm 0 W/m2
00:50 46 °F /  7.8 °C 44.1 °F /  6.7 °C 30.29in /  1025.6hPa North 6mph /  9.7km/h 12mph /  19.3km/h 93% 0.00in /  0mm 0 W/m2
01:00 46.2 °F /  7.9 °C 44.3 °F /  6.8 °C 30.29in /  1025.6hPa North 3mph /  4.8km/h 12mph /  19.3km/h 93% 0.00in /  0mm 0 W/m2
01:10 46.2 °F /  7.9 °C 44.3 °F /  6.8 °C 30.29in /  1025.6hPa North 6mph /  9.7km/h 12mph /  19.3km/h 93% 0.00in /  0mm 0 W/m2
01:20 46.2 °F /  7.9 °C 44.3 °F /  6.8 °C 30.29in /  1025.6hPa North 7mph /  11.3km/h 10mph /  16.1km/h 93% 0.00in /  0mm 0 W/m2
01:30 46.4 °F /  8 °C 44.5 °F /  6.9 °C 30.29in /  1025.6hPa North 5mph /  8km/h 12mph /  19.3km/h 93% 0.00in /  0mm 0 W/m2
01:40 46.4 °F /  8 °C 44.5 °F /  6.9 °C 30.29in /  1025.6hPa North 3mph /  4.8km/h 12mph /  19.3km/h 93% 0.00in /  0mm 0 W/m2
01:50 46.4 °F /  8 °C 44.5 °F /  6.9 °C 30.29in /  1025.6hPa North 5mph /  8km/h 13mph /  20.9km/h 93% 0.01in /  0.25mm 0 W/m2
02:00 46.2 °F /  7.9 °C 44.6 °F /  7 °C 30.29in /  1025.6hPa North 6mph /  9.7km/h 10mph /  16.1km/h 94% 0.00in /  0mm 0 W/m2
02:10 46.2 °F /  7.9 °C 44.6 °F /  7 °C 30.28in /  1025.3hPa North 6mph /  9.7km/h 12mph /  19.3km/h 94% 0.00in /  0mm 0 W/m2
02:20 46 °F /  7.8 °C 44.4 °F /  6.9 °C 30.28in /  1025.3hPa North 7mph /  11.3km/h 12mph /  19.3km/h 94% 0.00in /  0mm 0 W/m2
02:30 46 °F /  7.8 °C 44.7 °F /  7.1 °C 30.28in /  1025.3hPa North 6mph /  9.7km/h 14mph /  22.5km/h 95% 0.01in /  0.25mm 0 W/m2
02:40 46 °F /  7.8 °C 44.7 °F /  7.1 °C 30.28in /  1025.3hPa North 6mph /  9.7km/h 12mph /  19.3km/h 95% 0.00in /  0mm 0 W/m2
02:50 45.9 °F /  7.7 °C 44.8 °F /  7.1 °C 30.28in /  1025.3hPa North 3mph /  4.8km/h 9mph /  14.5km/h 96% 0.00in /  0mm 0 W/m2
03:00 45.9 °F /  7.7 °C 44.8 °F /  7.1 °C 30.28in /  1025.3hPa North 5mph /  8km/h 9mph /  14.5km/h 96% 0.01in /  0.25mm 0 W/m2
03:10 45.7 °F /  7.6 °C 44.6 °F /  7 °C 30.28in /  1025.3hPa North 3mph /  4.8km/h 12mph /  19.3km/h 96% 0.01in /  0.25mm 0 W/m2
03:20 45.7 °F /  7.6 °C 44.6 °F /  7 °C 30.27in /  1024.9hPa North 5mph /  8km/h 12mph /  19.3km/h 96% 0.00in /  0mm 0 W/m2
03:30 45.7 °F /  7.6 °C 45.1 °F /  7.3 °C 30.28in /  1025.3hPa North 5mph /  8km/h 12mph /  19.3km/h 98% 0.00in /  0mm 0 W/m2
03:40 45.5 °F /  7.5 °C 45 °F /  7.2 °C 30.27in /  1024.9hPa North 6mph /  9.7km/h 11mph /  17.7km/h 98% 0.00in /  0mm 0 W/m2
03:50 45.5 °F /  7.5 °C 45 °F /  7.2 °C 30.28in /  1025.3hPa North 6mph /  9.7km/h 11mph /  17.7km/h 98% 0.00in /  0mm 0 W/m2
04:00 45.5 °F /  7.5 °C 45 °F /  7.2 °C 30.28in /  1025.3hPa North 5mph /  8km/h 10mph /  16.1km/h 98% 0.00in /  0mm 0 W/m2
04:10 45.5 °F /  7.5 °C 44.4 °F /  6.9 °C 30.28in /  1025.3hPa North 5mph /  8km/h 10mph /  16.1km/h 96% 0.00in /  0mm 0 W/m2
04:20 45.5 °F /  7.5 °C 44.4 °F /  6.9 °C 30.28in /  1025.3hPa North 5mph /  8km/h 10mph /  16.1km/h 96% 0.00in /  0mm 0 W/m2
04:30 45.5 °F /  7.5 °C 44.4 °F /  6.9 °C 30.28in /  1025.3hPa North 3mph /  4.8km/h 13mph /  20.9km/h 96% 0.00in /  0mm 0 W/m2
04:40 45.5 °F /  7.5 °C 44.4 °F /  6.9 °C 30.28in /  1025.3hPa North 2mph /  3.2km/h 12mph /  19.3km/h 96% 0.00in /  0mm 0 W/m2
04:50 45.5 °F /  7.5 °C 44.4 °F /  6.9 °C 30.28in /  1025.3hPa North 6mph /  9.7km/h 12mph /  19.3km/h 96% 0.00in /  0mm 0 W/m2
05:00 45.5 °F /  7.5 °C 45 °F /  7.2 °C 30.27in /  1024.9hPa North 5mph /  8km/h 10mph /  16.1km/h 98% 0.00in /  0mm 0 W/m2
05:10 45.5 °F /  7.5 °C 44.4 °F /  6.9 °C 30.27in /  1024.9hPa North 7mph /  11.3km/h 12mph /  19.3km/h 96% 0.00in /  0mm 0 W/m2
05:20 45.5 °F /  7.5 °C 44.4 °F /  6.9 °C 30.27in /  1024.9hPa North 6mph /  9.7km/h 13mph /  20.9km/h 96% 0.00in /  0mm 0 W/m2
05:30 45.3 °F /  7.4 °C 44.2 °F /  6.8 °C 30.27in /  1024.9hPa North 6mph /  9.7km/h 10mph /  16.1km/h 96% 0.00in /  0mm 0 W/m2
05:40 45.3 °F /  7.4 °C 44.2 °F /  6.8 °C 30.27in /  1024.9hPa North 5mph /  8km/h 12mph /  19.3km/h 96% 0.00in /  0mm 0 W/m2
05:50 45.1 °F /  7.3 °C 44.6 °F /  7 °C 30.28in /  1025.3hPa North 6mph /  9.7km/h 12mph /  19.3km/h 98% 0.00in /  0mm 0 W/m2
06:00 45.1 °F /  7.3 °C 44.6 °F /  7 °C 30.28in /  1025.3hPa North 6mph /  9.7km/h 12mph /  19.3km/h 98% 0.00in /  0mm 0 W/m2
06:10 45.1 °F /  7.3 °C 44.1 °F /  6.7 °C 30.27in /  1024.9hPa North 5mph /  8km/h 12mph /  19.3km/h 96% 0.00in /  0mm 0 W/m2
06:20 45.1 °F /  7.3 °C 44 °F /  6.7 °C 30.28in /  1025.3hPa North 5mph /  8km/h 13mph /  20.9km/h 96% 0.00in /  0mm 0 W/m2
06:30 45.1 °F /  7.3 °C 44.6 °F /  7 °C 30.28in /  1025.3hPa North 6mph /  9.7km/h 13mph /  20.9km/h 98% 0.01in /  0.25mm 0 W/m2
06:40 45 °F /  7.2 °C 44.4 °F /  6.9 °C 30.28in /  1025.3hPa North 6mph /  9.7km/h 13mph /  20.9km/h 98% 0.00in /  0mm 0 W/m2
06:50 45 °F /  7.2 °C 44.4 °F /  6.9 °C 30.28in /  1025.3hPa North 6mph /  9.7km/h 16mph /  25.7km/h 98% 0.00in /  0mm 2 W/m2
07:00 45 °F /  7.2 °C 44.4 °F /  6.9 °C 30.28in /  1025.3hPa North 8mph /  12.9km/h 16mph /  25.7km/h 98% 0.00in /  0mm 6 W/m2
07:10 44.8 °F /  7.1 °C 44.3 °F /  6.8 °C 30.27in /  1024.9hPa North 7mph /  11.3km/h 12mph /  19.3km/h 98% 0.00in /  0mm 11 W/m2
07:20 44.8 °F /  7.1 °C 43.7 °F /  6.5 °C 30.27in /  1024.9hPa North 6mph /  9.7km/h 13mph /  20.9km/h 96% 0.00in /  0mm 14 W/m2
07:30 45 °F /  7.2 °C 43.9 °F /  6.6 °C 30.27in /  1024.9hPa North 6mph /  9.7km/h 15mph /  24.1km/h 96% 0.00in /  0mm 13 W/m2
07:40 45 °F /  7.2 °C 43.9 °F /  6.6 °C 30.27in /  1024.9hPa North 5mph /  8km/h 15mph /  24.1km/h 96% 0.00in /  0mm 12 W/m2
07:50 44.8 °F /  7.1 °C 43.7 °F /  6.5 °C 30.28in /  1025.3hPa North 6mph /  9.7km/h 13mph /  20.9km/h 96% 0.00in /  0mm 22 W/m2
08:00 45 °F /  7.2 °C 43.9 °F /  6.6 °C 30.28in /  1025.3hPa North 7mph /  11.3km/h 13mph /  20.9km/h 96% 0.00in /  0mm 23 W/m2
08:10 45 °F /  7.2 °C 43.9 °F /  6.6 °C 30.28in /  1025.3hPa North 8mph /  12.9km/h 14mph /  22.5km/h 96% 0.00in /  0mm 23 W/m2
08:20 45 °F /  7.2 °C 43.9 °F /  6.6 °C 30.28in /  1025.3hPa North 8mph /  12.9km/h 14mph /  22.5km/h 96% 0.00in /  0mm 29 W/m2
08:30 45 °F /  7.2 °C 43.9 °F /  6.6 °C 30.28in /  1025.3hPa North 7mph /  11.3km/h 14mph /  22.5km/h 96% 0.00in /  0mm 45 W/m2
08:40 45.1 °F /  7.3 °C 44 °F /  6.7 °C 30.28in /  1025.3hPa North 7mph /  11.3km/h 15mph /  24.1km/h 96% 0.00in /  0mm 70 W/m2
08:50 45.1 °F /  7.3 °C 44.1 °F /  6.7 °C 30.28in /  1025.3hPa North 6mph /  9.7km/h 13mph /  20.9km/h 96% 0.00in /  0mm 86 W/m2
09:00 45.1 °F /  7.3 °C 43.8 °F /  6.6 °C 30.28in /  1025.3hPa North 7mph /  11.3km/h 14mph /  22.5km/h 95% 0.00in /  0mm 98 W/m2
09:10 45.3 °F /  7.4 °C 44 °F /  6.7 °C 30.28in /  1025.3hPa North 8mph /  12.9km/h 13mph /  20.9km/h 95% 0.00in /  0mm 106 W/m2
09:20 45.5 °F /  7.5 °C 43.9 °F /  6.6 °C 30.28in /  1025.3hPa North 8mph /  12.9km/h 15mph /  24.1km/h 94% 0.00in /  0mm 102 W/m2
09:30 45.5 °F /  7.5 °C 43.9 °F /  6.6 °C 30.28in /  1025.3hPa North 8mph /  12.9km/h 13mph /  20.9km/h 94% 0.00in /  0mm 67 W/m2
09:40 45.5 °F /  7.5 °C 43.9 °F /  6.6 °C 30.28in /  1025.3hPa North 6mph /  9.7km/h 14mph /  22.5km/h 94% 0.00in /  0mm 65 W/m2
09:50 45.5 °F /  7.5 °C 43.9 °F /  6.6 °C 30.29in /  1025.6hPa North 6mph /  9.7km/h 14mph /  22.5km/h 94% 0.00in /  0mm 59 W/m2
10:00 45.5 °F /  7.5 °C 43.9 °F /  6.6 °C 30.29in /  1025.6hPa North 7mph /  11.3km/h 17mph /  27.4km/h 94% 0.00in /  0mm 58 W/m2
10:10 45.5 °F /  7.5 °C 43.9 °F /  6.6 °C 30.29in /  1025.6hPa North 5mph /  8km/h 14mph /  22.5km/h 94% 0.00in /  0mm 70 W/m2
10:20 45.3 °F /  7.4 °C 43.7 °F /  6.5 °C 30.29in /  1025.6hPa North 6mph /  9.7km/h 14mph /  22.5km/h 94% 0.00in /  0mm 67 W/m2
10:30 45.3 °F /  7.4 °C 44 °F /  6.7 °C 30.30in /  1026hPa North 7mph /  11.3km/h 15mph /  24.1km/h 95% 0.00in /  0mm 69 W/m2
10:40 45.1 °F /  7.3 °C 44.1 °F /  6.7 °C 30.30in /  1026hPa North 6mph /  9.7km/h 14mph /  22.5km/h 96% 0.00in /  0mm 78 W/m2
10:50 45 °F /  7.2 °C 43.9 °F /  6.6 °C 30.30in /  1026hPa North 6mph /  9.7km/h 17mph /  27.4km/h 96% 0.01in /  0.25mm 83 W/m2
11:00 45 °F /  7.2 °C 44.4 °F /  6.9 °C 30.30in /  1026hPa North 5mph /  8km/h 13mph /  20.9km/h 98% 0.01in /  0.25mm 71 W/m2
11:10 44.8 °F /  7.1 °C 44.3 °F /  6.8 °C 30.30in /  1026hPa North 6mph /  9.7km/h 12mph /  19.3km/h 98% 0.00in /  0mm 63 W/m2
11:20 44.6 °F /  7 °C 44.3 °F /  6.8 °C 30.30in /  1026hPa North 5mph /  8km/h 14mph /  22.5km/h 99% 0.01in /  0.25mm 111 W/m2
11:30 44.8 °F /  7.1 °C 44.5 °F /  6.9 °C 30.30in /  1026hPa North 7mph /  11.3km/h 14mph /  22.5km/h 99% 0.01in /  0.25mm 149 W/m2
11:40 44.8 °F /  7.1 °C 44.5 °F /  6.9 °C 30.29in /  1025.6hPa North 6mph /  9.7km/h 16mph /  25.7km/h 99% 0.01in /  0.25mm 172 W/m2
11:50 45.1 °F /  7.3 °C 44.8 °F /  7.1 °C 30.29in /  1025.6hPa North 6mph /  9.7km/h 13mph /  20.9km/h 99% 0.01in /  0.25mm 159 W/m2
12:00 45.1 °F /  7.3 °C 44.9 °F /  7.2 °C 30.29in /  1025.6hPa North 7mph /  11.3km/h 14mph /  22.5km/h 99% 0.01in /  0.25mm 193 W/m2
12:10 45.3 °F /  7.4 °C 45.1 °F /  7.3 °C 30.29in /  1025.6hPa North 7mph /  11.3km/h 15mph /  24.1km/h 99% 0.00in /  0mm 243 W/m2
12:20 45.5 °F /  7.5 °C 45.3 °F /  7.4 °C 30.28in /  1025.3hPa North 6mph /  9.7km/h 16mph /  25.7km/h 99% 0.00in /  0mm 268 W/m2
12:30 45.7 °F /  7.6 °C 45.4 °F /  7.4 °C 30.28in /  1025.3hPa North 9mph /  14.5km/h 18mph /  29km/h 99% 0.00in /  0mm 228 W/m2
12:40 45.9 °F /  7.7 °C 45.6 °F /  7.6 °C 30.28in /  1025.3hPa North 8mph /  12.9km/h 16mph /  25.7km/h 99% 0.00in /  0mm 211 W/m2
12:50 45.9 °F /  7.7 °C 45.6 °F /  7.6 °C 30.28in /  1025.3hPa North 8mph /  12.9km/h 15mph /  24.1km/h 99% 0.00in /  0mm 202 W/m2
13:00 45.7 °F /  7.6 °C 45.1 °F /  7.3 °C 30.28in /  1025.3hPa North 7mph /  11.3km/h 15mph /  24.1km/h 98% 0.00in /  0mm 163 W/m2
13:10 45.5 °F /  7.5 °C 45 °F /  7.2 °C 30.28in /  1025.3hPa North 7mph /  11.3km/h 17mph /  27.4km/h 98% 0.00in /  0mm 140 W/m2
13:20 45.5 °F /  7.5 °C 45.2 °F /  7.3 °C 30.27in /  1024.9hPa North 7mph /  11.3km/h 15mph /  24.1km/h 99% 0.00in /  0mm 149 W/m2
13:30 45.5 °F /  7.5 °C 45.2 °F /  7.3 °C 30.27in /  1024.9hPa North 6mph /  9.7km/h 17mph /  27.4km/h 99% 0.01in /  0.25mm 169 W/m2
13:40 45.3 °F /  7.4 °C 45.1 °F /  7.3 °C 30.27in /  1024.9hPa North 8mph /  12.9km/h 16mph /  25.7km/h 99% 0.00in /  0mm 156 W/m2
13:50 45.1 °F /  7.3 °C 44.9 °F /  7.2 °C 30.27in /  1024.9hPa North 8mph /  12.9km/h 15mph /  24.1km/h 99% 0.00in /  0mm 156 W/m2
14:00 45.1 °F /  7.3 °C 44.9 °F /  7.2 °C 30.27in /  1024.9hPa North 8mph /  12.9km/h 13mph /  20.9km/h 99% 0.01in /  0.25mm 165 W/m2
14:10 45 °F /  7.2 °C 44.7 °F /  7.1 °C 30.27in /  1024.9hPa North 7mph /  11.3km/h 15mph /  24.1km/h 99% 0.01in /  0.25mm 105 W/m2
14:20 45 °F /  7.2 °C 44.7 °F /  7.1 °C 30.27in /  1024.9hPa North 7mph /  11.3km/h 17mph /  27.4km/h 99% 0.01in /  0.25mm 64 W/m2
14:30 44.7 °F /  7.1 °C 44.5 °F /  6.9 °C 30.27in /  1024.9hPa North 6mph /  9.7km/h 13mph /  20.9km/h 99% 0.01in /  0.25mm 69 W/m2
14:40 44.6 °F /  7 °C 44.3 °F /  6.8 °C 30.27in /  1024.9hPa North 8mph /  12.9km/h 17mph /  27.4km/h 99% 0.01in /  0.25mm 72 W/m2
14:50 44.4 °F /  6.9 °C 44.2 °F /  6.8 °C 30.27in /  1024.9hPa North 7mph /  11.3km/h 13mph /  20.9km/h 99% 0.01in /  0.25mm 72 W/m2
15:00 44.2 °F /  6.8 °C 44 °F /  6.7 °C 30.27in /  1024.9hPa North 8mph /  12.9km/h 14mph /  22.5km/h 99% 0.01in /  0.25mm 68 W/m2
15:10 44.2 °F /  6.8 °C 44 °F /  6.7 °C 30.26in /  1024.6hPa North 7mph /  11.3km/h 13mph /  20.9km/h 99% 0.01in /  0.25mm 58 W/m2
15:20 44.2 °F /  6.8 °C 44 °F /  6.7 °C 30.26in /  1024.6hPa North 8mph /  12.9km/h 13mph /  20.9km/h 99% 0.01in /  0.25mm 50 W/m2
15:30 44.1 °F /  6.7 °C 43.8 °F /  6.6 °C 30.26in /  1024.6hPa North 7mph /  11.3km/h 15mph /  24.1km/h 99% 0.01in /  0.25mm 76 W/m2
15:40 44.1 °F /  6.7 °C 43.8 °F /  6.6 °C 30.26in /  1024.6hPa North 7mph /  11.3km/h 13mph /  20.9km/h 99% 0.01in /  0.25mm 65 W/m2
15:50 44.1 °F /  6.7 °C 43.8 °F /  6.6 °C 30.26in /  1024.6hPa North 6mph /  9.7km/h 13mph /  20.9km/h 99% 0.01in /  0.25mm 53 W/m2
16:00 44.1 °F /  6.7 °C 43.8 °F /  6.6 °C 30.25in /  1024.3hPa North 6mph /  9.7km/h 14mph /  22.5km/h 99% 0.01in /  0.25mm 43 W/m2
16:10 44 °F /  6.7 °C 43.8 °F /  6.6 °C 30.25in /  1024.3hPa North 6mph /  9.7km/h 17mph /  27.4km/h 99% 0.02in /  0.51mm 44 W/m2
16:20 43.9 °F /  6.6 °C 43.6 °F /  6.4 °C 30.25in /  1024.3hPa North 6mph /  9.7km/h 12mph /  19.3km/h 99% 0.01in /  0.25mm 37 W/m2
16:30 43.9 °F /  6.6 °C 43.6 °F /  6.4 °C 30.24in /  1023.9hPa North 7mph /  11.3km/h 15mph /  24.1km/h 99% 0.01in /  0.25mm 48 W/m2
16:40 43.9 °F /  6.6 °C 43.6 °F /  6.4 °C 30.24in /  1023.9hPa North 6mph /  9.7km/h 12mph /  19.3km/h 99% 0.01in /  0.25mm 45 W/m2
16:50 43.9 °F /  6.6 °C 43.6 °F /  6.4 °C 30.24in /  1023.9hPa North 7mph /  11.3km/h 14mph /  22.5km/h 99% 0.00in /  0mm 47 W/m2
17:00 43.9 °F /  6.6 °C 43.6 °F /  6.4 °C 30.24in /  1023.9hPa North 5mph /  8km/h 16mph /  25.7km/h 99% 0.00in /  0mm 48 W/m2
17:10 43.9 °F /  6.6 °C 43.6 °F /  6.4 °C 30.24in /  1023.9hPa North 7mph /  11.3km/h 13mph /  20.9km/h 99% 0.00in /  0mm 29 W/m2
17:20 43.9 °F /  6.6 °C 43.6 °F /  6.4 °C 30.23in /  1023.6hPa North 7mph /  11.3km/h 12mph /  19.3km/h 99% 0.00in /  0mm 16 W/m2
17:30 43.9 °F /  6.6 °C 43.6 °F /  6.4 °C 30.23in /  1023.6hPa North 3mph /  4.8km/h 12mph /  19.3km/h 99% 0.00in /  0mm 12 W/m2
17:40 43.9 °F /  6.6 °C 43.6 °F /  6.4 °C 30.23in /  1023.6hPa North 6mph /  9.7km/h 14mph /  22.5km/h 99% 0.00in /  0mm 6 W/m2
17:50 43.9 °F /  6.6 °C 43.6 °F /  6.4 °C 30.23in /  1023.6hPa North 5mph /  8km/h 12mph /  19.3km/h 99% 0.00in /  0mm 2 W/m2
18:00 43.9 °F /  6.6 °C 43.6 °F /  6.4 °C 30.23in /  1023.6hPa North 6mph /  9.7km/h 13mph /  20.9km/h 99% 0.00in /  0mm 0 W/m2
18:10 44.1 °F /  6.7 °C 43.8 °F /  6.6 °C 30.23in /  1023.6hPa North 6mph /  9.7km/h 13mph /  20.9km/h 99% 0.00in /  0mm 0 W/m2
18:20 44.1 °F /  6.7 °C 43.8 °F /  6.6 °C 30.24in /  1023.9hPa North 5mph /  8km/h 12mph /  19.3km/h 99% 0.00in /  0mm 0 W/m2
18:30 44.1 °F /  6.7 °C 43.8 °F /  6.6 °C 30.24in /  1023.9hPa North 7mph /  11.3km/h 12mph /  19.3km/h 99% 0.00in /  0mm 0 W/m2
18:40 44.1 °F /  6.7 °C 43.8 °F /  6.6 °C 30.24in /  1023.9hPa North 3mph /  4.8km/h 12mph /  19.3km/h 99% 0.00in /  0mm 0 W/m2
18:50 44.1 °F /  6.7 °C 43.8 °F /  6.6 °C 30.24in /  1023.9hPa North 7mph /  11.3km/h 12mph /  19.3km/h 99% 0.00in /  0mm 0 W/m2
19:00 44.2 °F /  6.8 °C 44 °F /  6.7 °C 30.24in /  1023.9hPa North 6mph /  9.7km/h 13mph /  20.9km/h 99% 0.00in /  0mm 0 W/m2
19:10 44.2 °F /  6.8 °C 44 °F /  6.7 °C 30.24in /  1023.9hPa North 5mph /  8km/h 12mph /  19.3km/h 99% 0.00in /  0mm 0 W/m2
19:20 44.2 °F /  6.8 °C 44 °F /  6.7 °C 30.24in /  1023.9hPa North 6mph /  9.7km/h 14mph /  22.5km/h 99% 0.01in /  0.25mm 0 W/m2
19:30 44.2 °F /  6.8 °C 44 °F /  6.7 °C 30.24in /  1023.9hPa NNE 5mph /  8km/h 12mph /  19.3km/h 99% 0.01in /  0.25mm 0 W/m2
19:40 44.2 °F /  6.8 °C 44 °F /  6.7 °C 30.24in /  1023.9hPa North 5mph /  8km/h 12mph /  19.3km/h 99% 0.00in /  0mm 0 W/m2
19:50 44.4 °F /  6.9 °C 44.1 °F /  6.7 °C 30.24in /  1023.9hPa North 5mph /  8km/h 12mph /  19.3km/h 99% 0.00in /  0mm 0 W/m2
20:00 44.4 °F /  6.9 °C 44.2 °F /  6.8 °C 30.24in /  1023.9hPa North 6mph /  9.7km/h 12mph /  19.3km/h 99% 0.00in /  0mm 0 W/m2
20:10 44.4 °F /  6.9 °C 44.2 °F /  6.8 °C 30.24in /  1023.9hPa NNE 5mph /  8km/h 12mph /  19.3km/h 99% 0.00in /  0mm 0 W/m2
20:20 44.6 °F /  7 °C 44.3 °F /  6.8 °C 30.24in /  1023.9hPa North 5mph /  8km/h 12mph /  19.3km/h 99% 0.00in /  0mm 0 W/m2
20:30 44.6 °F /  7 °C 44.3 °F /  6.8 °C 30.24in /  1023.9hPa North 6mph /  9.7km/h 14mph /  22.5km/h 99% 0.00in /  0mm 0 W/m2
20:40 44.8 °F /  7.1 °C 44.5 °F /  6.9 °C 30.24in /  1023.9hPa North 6mph /  9.7km/h 13mph /  20.9km/h 99% 0.00in /  0mm 0 W/m2
20:50 44.8 °F /  7.1 °C 44.5 °F /  6.9 °C 30.24in /  1023.9hPa North 5mph /  8km/h 11mph /  17.7km/h 99% 0.00in /  0mm 0 W/m2
21:00 45 °F /  7.2 °C 44.7 °F /  7.1 °C 30.23in /  1023.6hPa North 7mph /  11.3km/h 12mph /  19.3km/h 99% 0.00in /  0mm 0 W/m2
21:10 45.1 °F /  7.3 °C 44.8 °F /  7.1 °C 30.23in /  1023.6hPa North 2mph /  3.2km/h 12mph /  19.3km/h 99% 0.00in /  0mm 0 W/m2
21:20 45.1 °F /  7.3 °C 44.9 °F /  7.2 °C 30.23in /  1023.6hPa North 5mph /  8km/h 12mph /  19.3km/h 99% 0.00in /  0mm 0 W/m2
21:30 45.3 °F /  7.4 °C 45.1 °F /  7.3 °C 30.23in /  1023.6hPa North 3mph /  4.8km/h 12mph /  19.3km/h 99% 0.00in /  0mm 0 W/m2
21:40 45.4 °F /  7.4 °C 45.1 °F /  7.3 °C 30.23in /  1023.6hPa North 3mph /  4.8km/h 12mph /  19.3km/h 99% 0.00in /  0mm 0 W/m2
21:50 45.7 °F /  7.6 °C 45.1 °F /  7.3 °C 30.22in /  1023.2hPa North 6mph /  9.7km/h 13mph /  20.9km/h 98% 0.00in /  0mm 0 W/m2
22:00 45.9 °F /  7.7 °C 45.3 °F /  7.4 °C 30.22in /  1023.2hPa North 5mph /  8km/h 13mph /  20.9km/h 98% 0.00in /  0mm 0 W/m2
22:10 46 °F /  7.8 °C 45.5 °F /  7.5 °C 30.22in /  1023.2hPa North 5mph /  8km/h 13mph /  20.9km/h 98% 0.00in /  0mm 0 W/m2
22:20 46 °F /  7.8 °C 45.5 °F /  7.5 °C 30.22in /  1023.2hPa North 6mph /  9.7km/h 13mph /  20.9km/h 98% 0.00in /  0mm 0 W/m2
22:30 46.2 °F /  7.9 °C 45.7 °F /  7.6 °C 30.22in /  1023.2hPa North 7mph /  11.3km/h 13mph /  20.9km/h 98% 0.00in /  0mm 0 W/m2
22:40 46.2 °F /  7.9 °C 45.7 °F /  7.6 °C 30.22in /  1023.2hPa North 6mph /  9.7km/h 14mph /  22.5km/h 98% 0.00in /  0mm 0 W/m2
22:50 46.4 °F /  8 °C 45.9 °F /  7.7 °C 30.22in /  1023.2hPa North 6mph /  9.7km/h 11mph /  17.7km/h 98% 0.00in /  0mm 0 W/m2
23:00 46.4 °F /  8 °C 45.9 °F /  7.7 °C 30.22in /  1023.2hPa North 7mph /  11.3km/h 14mph /  22.5km/h 98% 0.00in /  0mm 0 W/m2
23:10 46.4 °F /  8 °C 45.9 °F /  7.7 °C 30.21in /  1022.9hPa North 6mph /  9.7km/h 13mph /  20.9km/h 98% 0.00in /  0mm 0 W/m2
23:20 46.4 °F /  8 °C 45.9 °F /  7.7 °C 30.21in /  1022.9hPa North 3mph /  4.8km/h 12mph /  19.3km/h 98% 0.00in /  0mm 0 W/m2
23:30 46.2 °F /  7.9 °C 45.7 °F /  7.6 °C 30.21in /  1022.9hPa North 5mph /  8km/h 13mph /  20.9km/h 98% 0.00in /  0mm 0 W/m2
23:40 46.2 °F /  7.9 °C 45.7 °F /  7.6 °C 30.21in /  1022.9hPa North 5mph /  8km/h 16mph /  25.7km/h 98% 0.00in /  0mm 0 W/m2
23:50 46.2 °F /  7.9 °C 45.7 °F /  7.6 °C 30.21in /  1022.9hPa North 8mph /  12.9km/h 17mph /  27.4km/h 98% 0.00in /  0mm 0 W/m2
Knjazevac, Serbia
Compliments of Weather Underground - 2 mb